sensor_id;sensor_type;location;lat;lon;timestamp;temperature;humidity
18153;DHT22;9202;51.578;7.734;2022-08-04T00:02:05;21.80;99.90
18153;DHT22;9202;51.578;7.734;2022-08-04T00:04:12;21.70;99.90
18153;DHT22;9202;51.578;7.734;2022-08-04T00:06:20;21.60;99.90
18153;DHT22;9202;51.578;7.734;2022-08-04T00:08:32;21.60;99.90
18153;DHT22;9202;51.578;7.734;2022-08-04T00:10:36;21.60;99.90
18153;DHT22;9202;51.578;7.734;2022-08-04T00:15:03;21.60;99.90
18153;DHT22;9202;51.578;7.734;2022-08-04T00:17:07;21.50;99.90
18153;DHT22;9202;51.578;7.734;2022-08-04T00:19:17;21.50;99.90
18153;DHT22;9202;51.578;7.734;2022-08-04T00:21:19;21.40;99.90
18153;DHT22;9202;51.578;7.734;2022-08-04T00:23:26;21.30;99.90
18153;DHT22;9202;51.578;7.734;2022-08-04T00:25:32;21.30;99.90
18153;DHT22;9202;51.578;7.734;2022-08-04T00:27:35;21.10;99.90
18153;DHT22;9202;51.578;7.734;2022-08-04T00:29:39;20.90;99.90
18153;DHT22;9202;51.578;7.734;2022-08-04T00:31:42;20.80;99.90
18153;DHT22;9202;51.578;7.734;2022-08-04T00:33:49;20.70;99.90
18153;DHT22;9202;51.578;7.734;2022-08-04T00:35:54;20.60;99.90
18153;DHT22;9202;51.578;7.734;2022-08-04T00:37:59;20.70;99.90
18153;DHT22;9202;51.578;7.734;2022-08-04T00:40:08;20.70;99.90
18153;DHT22;9202;51.578;7.734;2022-08-04T00:42:25;20.70;99.90
18153;DHT22;9202;51.578;7.734;2022-08-04T00:44:36;20.70;99.90
18153;DHT22;9202;51.578;7.734;2022-08-04T00:46:59;20.80;99.90
18153;DHT22;9202;51.578;7.734;2022-08-04T00:51:42;20.80;99.90
18153;DHT22;9202;51.578;7.734;2022-08-04T00:53:53;20.80;99.90
18153;DHT22;9202;51.578;7.734;2022-08-04T00:56:04;20.90;99.90
18153;DHT22;9202;51.578;7.734;2022-08-04T00:58:21;20.90;99.90
18153;DHT22;9202;51.578;7.734;2022-08-04T01:00:25;20.90;99.90
18153;DHT22;9202;51.578;7.734;2022-08-04T01:05:02;21.00;99.90
18153;DHT22;9202;51.578;7.734;2022-08-04T01:07:23;21.10;99.90
18153;DHT22;9202;51.578;7.734;2022-08-04T01:09:32;21.10;99.90
18153;DHT22;9202;51.578;7.734;2022-08-04T01:17:04;21.00;99.90
18153;DHT22;9202;51.578;7.734;2022-08-04T01:19:10;20.90;99.90
18153;DHT22;9202;51.578;7.734;2022-08-04T01:21:57;20.90;99.90
18153;DHT22;9202;51.578;7.734;2022-08-04T01:26:59;20.80;99.90
18153;DHT22;9202;51.578;7.734;2022-08-04T01:29:07;20.70;99.90
18153;DHT22;9202;51.578;7.734;2022-08-04T01:31:15;20.80;99.90
18153;DHT22;9202;51.578;7.734;2022-08-04T01:33:21;20.80;99.90
18153;DHT22;9202;51.578;7.734;2022-08-04T01:35:27;20.70;99.90
18153;DHT22;9202;51.578;7.734;2022-08-04T01:40:07;20.40;99.90
18153;DHT22;9202;51.578;7.734;2022-08-04T01:42:11;20.40;99.90
18153;DHT22;9202;51.578;7.734;2022-08-04T01:44:18;20.40;99.90
18153;DHT22;9202;51.578;7.734;2022-08-04T01:46:25;20.50;99.90
18153;DHT22;9202;51.578;7.734;2022-08-04T01:48:30;20.50;99.90
18153;DHT22;9202;51.578;7.734;2022-08-04T01:50:35;20.50;99.90
18153;DHT22;9202;51.578;7.734;2022-08-04T01:52:42;20.50;99.90
18153;DHT22;9202;51.578;7.734;2022-08-04T01:54:49;20.50;99.90
18153;DHT22;9202;51.578;7.734;2022-08-04T01:56:54;20.60;99.90
18153;DHT22;9202;51.578;7.734;2022-08-04T01:58:59;20.50;99.90
18153;DHT22;9202;51.578;7.734;2022-08-04T02:01:07;20.60;99.90
18153;DHT22;9202;51.578;7.734;2022-08-04T02:03:12;20.60;99.90
18153;DHT22;9202;51.578;7.734;2022-08-04T02:05:18;20.50;99.90
18153;DHT22;9202;51.578;7.734;2022-08-04T02:07:30;20.50;99.90
18153;DHT22;9202;51.578;7.734;2022-08-04T02:09:39;20.40;99.90
18153;DHT22;9202;51.578;7.734;2022-08-04T02:14:10;20.40;99.90
18153;DHT22;9202;51.578;7.734;2022-08-04T02:16:23;20.40;99.90
18153;DHT22;9202;51.578;7.734;2022-08-04T02:18:26;20.40;99.90
18153;DHT22;9202;51.578;7.734;2022-08-04T02:20:36;20.40;99.90
18153;DHT22;9202;51.578;7.734;2022-08-04T02:22:43;20.40;99.90
18153;DHT22;9202;51.578;7.734;2022-08-04T02:24:49;20.40;99.90
18153;DHT22;9202;51.578;7.734;2022-08-04T02:26:56;20.40;99.90
18153;DHT22;9202;51.578;7.734;2022-08-04T02:31:25;20.40;99.90
18153;DHT22;9202;51.578;7.734;2022-08-04T02:33:35;20.40;99.90
18153;DHT22;9202;51.578;7.734;2022-08-04T02:35:40;20.40;99.90
18153;DHT22;9202;51.578;7.734;2022-08-04T02:37:48;20.40;99.90
18153;DHT22;9202;51.578;7.734;2022-08-04T02:42:11;20.30;99.90
18153;DHT22;9202;51.578;7.734;2022-08-04T02:44:18;20.40;99.90
18153;DHT22;9202;51.578;7.734;2022-08-04T02:46:22;20.40;99.90
18153;DHT22;9202;51.578;7.734;2022-08-04T02:48:27;20.40;99.90
18153;DHT22;9202;51.578;7.734;2022-08-04T02:50:34;20.40;99.90
18153;DHT22;9202;51.578;7.734;2022-08-04T02:52:40;20.30;99.90
18153;DHT22;9202;51.578;7.734;2022-08-04T02:54:46;20.40;99.90
18153;DHT22;9202;51.578;7.734;2022-08-04T02:56:51;20.40;99.90
18153;DHT22;9202;51.578;7.734;2022-08-04T02:58:58;20.40;99.90
18153;DHT22;9202;51.578;7.734;2022-08-04T03:01:02;20.40;99.90
18153;DHT22;9202;51.578;7.734;2022-08-04T03:03:14;20.40;99.90
18153;DHT22;9202;51.578;7.734;2022-08-04T03:05:21;20.50;99.90
18153;DHT22;9202;51.578;7.734;2022-08-04T03:10:22;20.50;99.90
18153;DHT22;9202;51.578;7.734;2022-08-04T03:12:44;20.40;99.90
18153;DHT22;9202;51.578;7.734;2022-08-04T03:20:27;20.20;99.90
18153;DHT22;9202;51.578;7.734;2022-08-04T03:28:30;20.10;99.90
18153;DHT22;9202;51.578;7.734;2022-08-04T03:30:38;20.20;99.90
18153;DHT22;9202;51.578;7.734;2022-08-04T03:33:07;20.10;99.90
18153;DHT22;9202;51.578;7.734;2022-08-04T03:35:27;20.20;99.90
18153;DHT22;9202;51.578;7.734;2022-08-04T03:37:42;20.20;99.90
18153;DHT22;9202;51.578;7.734;2022-08-04T03:47:50;19.90;99.90
18153;DHT22;9202;51.578;7.734;2022-08-04T03:50:30;19.90;99.90
18153;DHT22;9202;51.578;7.734;2022-08-04T03:58:27;19.70;99.90
18153;DHT22;9202;51.578;7.734;2022-08-04T04:00:38;19.60;99.90
18153;DHT22;9202;51.578;7.734;2022-08-04T04:08:08;19.70;99.90
18153;DHT22;9202;51.578;7.734;2022-08-04T04:10:24;19.70;99.90
18153;DHT22;9202;51.578;7.734;2022-08-04T04:13:04;19.80;99.90
18153;DHT22;9202;51.578;7.734;2022-08-04T04:15:18;19.90;99.90
18153;DHT22;9202;51.578;7.734;2022-08-04T04:17:49;19.90;99.90
18153;DHT22;9202;51.578;7.734;2022-08-04T04:22:32;20.00;99.90
18153;DHT22;9202;51.578;7.734;2022-08-04T04:24:57;20.00;99.90
18153;DHT22;9202;51.578;7.734;2022-08-04T04:27:08;20.00;99.90
18153;DHT22;9202;51.578;7.734;2022-08-04T04:34:38;19.80;99.90
18153;DHT22;9202;51.578;7.734;2022-08-04T04:39:08;19.70;99.90
18153;DHT22;9202;51.578;7.734;2022-08-04T04:41:24;19.70;99.90
18153;DHT22;9202;51.578;7.734;2022-08-04T04:43:45;19.60;99.90
18153;DHT22;9202;51.578;7.734;2022-08-04T04:45:54;19.60;99.90
18153;DHT22;9202;51.578;7.734;2022-08-04T04:48:06;19.60;99.90
18153;DHT22;9202;51.578;7.734;2022-08-04T04:50:14;19.60;99.90
18153;DHT22;9202;51.578;7.734;2022-08-04T04:52:23;19.70;99.90
18153;DHT22;9202;51.578;7.734;2022-08-04T04:54:30;19.70;99.90
18153;DHT22;9202;51.578;7.734;2022-08-04T04:56:39;19.80;99.90
18153;DHT22;9202;51.578;7.734;2022-08-04T04:58:43;19.80;99.90
18153;DHT22;9202;51.578;7.734;2022-08-04T05:01:29;19.80;99.90
18153;DHT22;9202;51.578;7.734;2022-08-04T05:03:45;19.80;99.90
18153;DHT22;9202;51.578;7.734;2022-08-04T05:14:02;19.70;99.90
18153;DHT22;9202;51.578;7.734;2022-08-04T05:16:13;19.70;99.90
18153;DHT22;9202;51.578;7.734;2022-08-04T05:18:21;19.70;99.90
18153;DHT22;9202;51.578;7.734;2022-08-04T05:22:47;19.90;99.90
18153;DHT22;9202;51.578;7.734;2022-08-04T05:24:58;19.90;99.90
18153;DHT22;9202;51.578;7.734;2022-08-04T05:27:07;20.00;99.90
18153;DHT22;9202;51.578;7.734;2022-08-04T05:31:33;20.10;99.90
18153;DHT22;9202;51.578;7.734;2022-08-04T05:33:39;20.10;99.90
18153;DHT22;9202;51.578;7.734;2022-08-04T05:35:49;20.20;99.90
18153;DHT22;9202;51.578;7.734;2022-08-04T05:37:56;20.30;99.90
18153;DHT22;9202;51.578;7.734;2022-08-04T05:40:06;20.20;99.90
18153;DHT22;9202;51.578;7.734;2022-08-04T05:42:11;20.30;99.90
18153;DHT22;9202;51.578;7.734;2022-08-04T05:44:16;20.40;99.90
18153;DHT22;9202;51.578;7.734;2022-08-04T05:46:21;20.40;99.90
18153;DHT22;9202;51.578;7.734;2022-08-04T05:48:25;20.40;99.90
18153;DHT22;9202;51.578;7.734;2022-08-04T05:50:30;20.50;99.90
18153;DHT22;9202;51.578;7.734;2022-08-04T05:52:36;20.60;99.90
18153;DHT22;9202;51.578;7.734;2022-08-04T05:54:41;20.70;99.90
18153;DHT22;9202;51.578;7.734;2022-08-04T05:56:46;20.70;99.90
18153;DHT22;9202;51.578;7.734;2022-08-04T05:58:51;20.80;99.90
18153;DHT22;9202;51.578;7.734;2022-08-04T06:00:55;20.80;99.90
18153;DHT22;9202;51.578;7.734;2022-08-04T06:03:00;20.80;99.90
18153;DHT22;9202;51.578;7.734;2022-08-04T06:07:21;20.90;99.90
18153;DHT22;9202;51.578;7.734;2022-08-04T06:09:25;20.90;99.90
18153;DHT22;9202;51.578;7.734;2022-08-04T06:11:29;20.90;99.90
18153;DHT22;9202;51.578;7.734;2022-08-04T06:13:38;20.90;99.90
18153;DHT22;9202;51.578;7.734;2022-08-04T06:15:44;20.90;99.90
18153;DHT22;9202;51.578;7.734;2022-08-04T06:17:54;21.00;99.90
18153;DHT22;9202;51.578;7.734;2022-08-04T06:20:02;21.10;99.90
18153;DHT22;9202;51.578;7.734;2022-08-04T06:24:29;21.10;99.90
18153;DHT22;9202;51.578;7.734;2022-08-04T06:26:34;21.20;99.90
18153;DHT22;9202;51.578;7.734;2022-08-04T06:28:40;21.20;99.90
18153;DHT22;9202;51.578;7.734;2022-08-04T06:30:45;21.30;99.90
18153;DHT22;9202;51.578;7.734;2022-08-04T06:32:52;21.40;99.90
18153;DHT22;9202;51.578;7.734;2022-08-04T06:35:01;21.50;99.90
18153;DHT22;9202;51.578;7.734;2022-08-04T06:39:23;21.80;99.90
18153;DHT22;9202;51.578;7.734;2022-08-04T06:41:30;21.90;99.90
18153;DHT22;9202;51.578;7.734;2022-08-04T06:43:34;22.00;99.90
18153;DHT22;9202;51.578;7.734;2022-08-04T06:45:41;22.00;99.90
18153;DHT22;9202;51.578;7.734;2022-08-04T06:47:46;22.20;99.90
18153;DHT22;9202;51.578;7.734;2022-08-04T06:49:53;22.20;99.90
18153;DHT22;9202;51.578;7.734;2022-08-04T06:52:00;22.30;99.90
18153;DHT22;9202;51.578;7.734;2022-08-04T06:54:05;22.40;99.90
18153;DHT22;9202;51.578;7.734;2022-08-04T06:56:09;22.50;99.90
18153;DHT22;9202;51.578;7.734;2022-08-04T06:58:15;22.60;99.90
18153;DHT22;9202;51.578;7.734;2022-08-04T07:00:19;22.70;99.90
18153;DHT22;9202;51.578;7.734;2022-08-04T07:02:29;22.90;99.90
18153;DHT22;9202;51.578;7.734;2022-08-04T07:04:33;22.90;99.90
18153;DHT22;9202;51.578;7.734;2022-08-04T07:06:37;23.00;99.90
18153;DHT22;9202;51.578;7.734;2022-08-04T07:11:00;23.30;99.90
18153;DHT22;9202;51.578;7.734;2022-08-04T07:13:04;23.40;99.90
18153;DHT22;9202;51.578;7.734;2022-08-04T07:15:10;23.40;99.90
18153;DHT22;9202;51.578;7.734;2022-08-04T07:17:16;23.50;99.90
18153;DHT22;9202;51.578;7.734;2022-08-04T07:21:37;23.60;99.90
18153;DHT22;9202;51.578;7.734;2022-08-04T07:23:41;23.70;99.90
18153;DHT22;9202;51.578;7.734;2022-08-04T07:25:50;23.80;99.90
18153;DHT22;9202;51.578;7.734;2022-08-04T07:27:56;23.90;99.90
18153;DHT22;9202;51.578;7.734;2022-08-04T07:30:00;24.00;99.90
18153;DHT22;9202;51.578;7.734;2022-08-04T07:32:07;24.20;99.90
18153;DHT22;9202;51.578;7.734;2022-08-04T07:34:12;24.30;99.90
18153;DHT22;9202;51.578;7.734;2022-08-04T07:36:18;24.30;99.90
18153;DHT22;9202;51.578;7.734;2022-08-04T07:38:22;24.50;99.90
18153;DHT22;9202;51.578;7.734;2022-08-04T07:40:28;24.70;99.90
18153;DHT22;9202;51.578;7.734;2022-08-04T07:42:32;24.90;99.90
18153;DHT22;9202;51.578;7.734;2022-08-04T07:44:37;25.20;99.90
18153;DHT22;9202;51.578;7.734;2022-08-04T07:46:41;25.40;99.90
18153;DHT22;9202;51.578;7.734;2022-08-04T07:48:45;25.70;99.90
18153;DHT22;9202;51.578;7.734;2022-08-04T07:50:49;26.00;99.90
18153;DHT22;9202;51.578;7.734;2022-08-04T07:52:53;26.10;99.90
18153;DHT22;9202;51.578;7.734;2022-08-04T07:54:59;26.40;99.90
18153;DHT22;9202;51.578;7.734;2022-08-04T07:57:03;26.50;99.90
18153;DHT22;9202;51.578;7.734;2022-08-04T07:59:07;26.70;99.90
18153;DHT22;9202;51.578;7.734;2022-08-04T08:03:27;27.50;99.90
18153;DHT22;9202;51.578;7.734;2022-08-04T08:05:32;27.80;99.90
18153;DHT22;9202;51.578;7.734;2022-08-04T08:07:38;28.00;99.90
18153;DHT22;9202;51.578;7.734;2022-08-04T08:09:44;28.30;99.90
18153;DHT22;9202;51.578;7.734;2022-08-04T08:11:48;28.50;99.90
18153;DHT22;9202;51.578;7.734;2022-08-04T08:13:54;28.70;99.90
18153;DHT22;9202;51.578;7.734;2022-08-04T08:16:00;29.00;99.90
18153;DHT22;9202;51.578;7.734;2022-08-04T08:18:05;29.30;99.90
18153;DHT22;9202;51.578;7.734;2022-08-04T08:20:10;29.60;99.90
18153;DHT22;9202;51.578;7.734;2022-08-04T08:22:16;29.80;99.90
18153;DHT22;9202;51.578;7.734;2022-08-04T08:24:20;30.10;99.90
18153;DHT22;9202;51.578;7.734;2022-08-04T08:26:23;30.20;99.90
18153;DHT22;9202;51.578;7.734;2022-08-04T08:28:28;30.50;99.90
18153;DHT22;9202;51.578;7.734;2022-08-04T08:30:32;30.80;99.90
18153;DHT22;9202;51.578;7.734;2022-08-04T08:32:36;31.00;99.90
18153;DHT22;9202;51.578;7.734;2022-08-04T08:34:40;31.10;99.90
18153;DHT22;9202;51.578;7.734;2022-08-04T08:36:48;31.10;99.90
18153;DHT22;9202;51.578;7.734;2022-08-04T08:41:34;31.50;99.90
18153;DHT22;9202;51.578;7.734;2022-08-04T08:43:45;31.60;99.90
18153;DHT22;9202;51.578;7.734;2022-08-04T08:46:01;31.60;99.90
18153;DHT22;9202;51.578;7.734;2022-08-04T08:51:16;32.00;99.90
18153;DHT22;9202;51.578;7.734;2022-08-04T08:53:34;32.40;99.90
18153;DHT22;9202;51.578;7.734;2022-08-04T08:55:46;32.40;99.90
18153;DHT22;9202;51.578;7.734;2022-08-04T08:58:05;32.60;99.90
18153;DHT22;9202;51.578;7.734;2022-08-04T09:07:56;33.30;98.20
18153;DHT22;9202;51.578;7.734;2022-08-04T09:10:12;33.40;98.60
18153;DHT22;9202;51.578;7.734;2022-08-04T09:14:44;33.50;97.00
18153;DHT22;9202;51.578;7.734;2022-08-04T09:16:50;33.60;97.00
18153;DHT22;9202;51.578;7.734;2022-08-04T09:19:01;33.60;98.60
18153;DHT22;9202;51.578;7.734;2022-08-04T09:21:09;33.70;96.60
18153;DHT22;9202;51.578;7.734;2022-08-04T09:23:19;33.60;95.40
18153;DHT22;9202;51.578;7.734;2022-08-04T09:27:48;33.10;93.70
18153;DHT22;9202;51.578;7.734;2022-08-04T09:32:18;32.70;95.10
18153;DHT22;9202;51.578;7.734;2022-08-04T09:34:30;32.70;95.70
18153;DHT22;9202;51.578;7.734;2022-08-04T09:38:58;32.90;93.00
18153;DHT22;9202;51.578;7.734;2022-08-04T09:43:35;33.10;93.40
18153;DHT22;9202;51.578;7.734;2022-08-04T09:48:04;33.60;93.40
18153;DHT22;9202;51.578;7.734;2022-08-04T09:50:15;33.80;92.00
18153;DHT22;9202;51.578;7.734;2022-08-04T09:52:26;33.90;92.10
18153;DHT22;9202;51.578;7.734;2022-08-04T09:54:38;33.90;93.90
18153;DHT22;9202;51.578;7.734;2022-08-04T09:56:47;34.10;92.30
18153;DHT22;9202;51.578;7.734;2022-08-04T09:58:57;34.50;91.30
18153;DHT22;9202;51.578;7.734;2022-08-04T10:01:03;34.60;90.30
18153;DHT22;9202;51.578;7.734;2022-08-04T10:03:10;34.70;89.90
18153;DHT22;9202;51.578;7.734;2022-08-04T10:07:50;34.90;87.30
18153;DHT22;9202;51.578;7.734;2022-08-04T10:10:09;35.20;90.40
18153;DHT22;9202;51.578;7.734;2022-08-04T10:12:25;35.10;85.80
18153;DHT22;9202;51.578;7.734;2022-08-04T10:16:52;35.10;84.80
18153;DHT22;9202;51.578;7.734;2022-08-04T10:19:00;35.10;83.50
18153;DHT22;9202;51.578;7.734;2022-08-04T10:21:10;35.10;84.00
18153;DHT22;9202;51.578;7.734;2022-08-04T10:27:56;35.30;82.20
18153;DHT22;9202;51.578;7.734;2022-08-04T10:32:24;35.50;81.70
18153;DHT22;9202;51.578;7.734;2022-08-04T10:36:50;35.40;77.20
18153;DHT22;9202;51.578;7.734;2022-08-04T10:41:17;35.00;80.60
18153;DHT22;9202;51.578;7.734;2022-08-04T10:45:43;35.00;73.10
18153;DHT22;9202;51.578;7.734;2022-08-04T10:50:12;35.10;75.10
18153;DHT22;9202;51.578;7.734;2022-08-04T10:54:38;35.20;76.60
18153;DHT22;9202;51.578;7.734;2022-08-04T10:59:06;35.30;73.80
18153;DHT22;9202;51.578;7.734;2022-08-04T11:03:33;35.80;71.30
18153;DHT22;9202;51.578;7.734;2022-08-04T11:05:40;35.90;72.50
18153;DHT22;9202;51.578;7.734;2022-08-04T11:07:49;36.00;74.10
18153;DHT22;9202;51.578;7.734;2022-08-04T11:09:52;35.80;71.30
18153;DHT22;9202;51.578;7.734;2022-08-04T11:14:16;35.60;70.00
18153;DHT22;9202;51.578;7.734;2022-08-04T11:18:44;34.60;68.30
18153;DHT22;9202;51.578;7.734;2022-08-04T11:23:07;34.20;70.30
18153;DHT22;9202;51.578;7.734;2022-08-04T11:34:34;34.70;69.70
18153;DHT22;9202;51.578;7.734;2022-08-04T11:39:02;34.50;71.30
18153;DHT22;9202;51.578;7.734;2022-08-04T11:43:23;34.30;74.80
18153;DHT22;9202;51.578;7.734;2022-08-04T11:47:49;34.90;75.40
18153;DHT22;9202;51.578;7.734;2022-08-04T11:52:12;35.30;73.50
18153;DHT22;9202;51.578;7.734;2022-08-04T11:56:35;34.90;73.70
18153;DHT22;9202;51.578;7.734;2022-08-04T12:01:01;34.70;75.30
18153;DHT22;9202;51.578;7.734;2022-08-04T12:03:13;34.70;76.60
18153;DHT22;9202;51.578;7.734;2022-08-04T12:07:43;34.80;75.10
18153;DHT22;9202;51.578;7.734;2022-08-04T12:10:03;34.70;74.40
18153;DHT22;9202;51.578;7.734;2022-08-04T12:14:20;34.50;71.60
18153;DHT22;9202;51.578;7.734;2022-08-04T12:18:44;34.50;71.90
18153;DHT22;9202;51.578;7.734;2022-08-04T12:20:54;34.50;72.20
18153;DHT22;9202;51.578;7.734;2022-08-04T12:25:15;34.80;72.80
18153;DHT22;9202;51.578;7.734;2022-08-04T12:31:59;34.60;71.00
18153;DHT22;9202;51.578;7.734;2022-08-04T12:34:07;34.60;73.00
18153;DHT22;9202;51.578;7.734;2022-08-04T12:38:32;34.70;73.30
18153;DHT22;9202;51.578;7.734;2022-08-04T12:42:59;34.70;73.00
18153;DHT22;9202;51.578;7.734;2022-08-04T12:47:24;34.80;75.30
18153;DHT22;9202;51.578;7.734;2022-08-04T12:51:46;34.60;75.10
18153;DHT22;9202;51.578;7.734;2022-08-04T12:53:52;34.40;75.10
18153;DHT22;9202;51.578;7.734;2022-08-04T12:58:15;33.80;77.70
18153;DHT22;9202;51.578;7.734;2022-08-04T13:00:27;33.60;78.50
18153;DHT22;9202;51.578;7.734;2022-08-04T13:02:36;33.40;77.90
18153;DHT22;9202;51.578;7.734;2022-08-04T13:04:43;33.30;78.90
18153;DHT22;9202;51.578;7.734;2022-08-04T13:06:54;33.10;78.40
18153;DHT22;9202;51.578;7.734;2022-08-04T13:09:04;33.00;79.30
18153;DHT22;9202;51.578;7.734;2022-08-04T13:11:11;32.90;78.60
18153;DHT22;9202;51.578;7.734;2022-08-04T13:13:18;32.80;78.80
18153;DHT22;9202;51.578;7.734;2022-08-04T13:15:24;32.70;79.20
18153;DHT22;9202;51.578;7.734;2022-08-04T13:19:56;32.50;80.40
18153;DHT22;9202;51.578;7.734;2022-08-04T13:22:00;32.40;81.90
18153;DHT22;9202;51.578;7.734;2022-08-04T13:24:09;32.40;82.60
18153;DHT22;9202;51.578;7.734;2022-08-04T13:26:17;32.30;83.20
18153;DHT22;9202;51.578;7.734;2022-08-04T13:28:25;32.40;85.00
18153;DHT22;9202;51.578;7.734;2022-08-04T13:30:30;32.50;84.50
18153;DHT22;9202;51.578;7.734;2022-08-04T13:32:35;32.60;84.00
18153;DHT22;9202;51.578;7.734;2022-08-04T13:34:41;32.50;86.10
18153;DHT22;9202;51.578;7.734;2022-08-04T13:36:48;32.50;87.70
18153;DHT22;9202;51.578;7.734;2022-08-04T13:38:54;32.40;87.20
18153;DHT22;9202;51.578;7.734;2022-08-04T13:41:01;32.30;87.00
18153;DHT22;9202;51.578;7.734;2022-08-04T13:43:06;32.20;88.40
18153;DHT22;9202;51.578;7.734;2022-08-04T13:45:13;32.10;89.00
18153;DHT22;9202;51.578;7.734;2022-08-04T13:47:21;32.00;88.80
18153;DHT22;9202;51.578;7.734;2022-08-04T13:49:26;31.90;90.10
18153;DHT22;9202;51.578;7.734;2022-08-04T13:53:54;31.80;90.30
18153;DHT22;9202;51.578;7.734;2022-08-04T13:55:59;31.70;90.50
18153;DHT22;9202;51.578;7.734;2022-08-04T13:58:06;31.50;90.30
18153;DHT22;9202;51.578;7.734;2022-08-04T14:00:11;31.40;90.90
18153;DHT22;9202;51.578;7.734;2022-08-04T14:02:25;31.30;90.90
18153;DHT22;9202;51.578;7.734;2022-08-04T14:04:33;31.30;91.00
18153;DHT22;9202;51.578;7.734;2022-08-04T14:06:43;31.20;91.40
18153;DHT22;9202;51.578;7.734;2022-08-04T14:08:53;31.20;91.10
18153;DHT22;9202;51.578;7.734;2022-08-04T14:10:57;31.20;91.20
18153;DHT22;9202;51.578;7.734;2022-08-04T14:13:03;31.20;91.70
18153;DHT22;9202;51.578;7.734;2022-08-04T14:15:10;31.10;91.60
18153;DHT22;9202;51.578;7.734;2022-08-04T14:17:16;31.00;91.60
18153;DHT22;9202;51.578;7.734;2022-08-04T14:19:22;31.00;91.90
18153;DHT22;9202;51.578;7.734;2022-08-04T14:21:28;31.00;92.50
18153;DHT22;9202;51.578;7.734;2022-08-04T14:23:45;31.00;92.60
18153;DHT22;9202;51.578;7.734;2022-08-04T14:25:51;30.80;92.90
18153;DHT22;9202;51.578;7.734;2022-08-04T14:27:56;30.70;93.70
18153;DHT22;9202;51.578;7.734;2022-08-04T14:29:59;30.60;94.20
18153;DHT22;9202;51.578;7.734;2022-08-04T14:32:04;30.60;94.00
18153;DHT22;9202;51.578;7.734;2022-08-04T14:34:10;30.60;94.80
18153;DHT22;9202;51.578;7.734;2022-08-04T14:36:18;30.60;94.60
18153;DHT22;9202;51.578;7.734;2022-08-04T14:38:24;30.70;94.70
18153;DHT22;9202;51.578;7.734;2022-08-04T14:40:31;30.70;94.50
18153;DHT22;9202;51.578;7.734;2022-08-04T14:42:44;30.60;94.70
18153;DHT22;9202;51.578;7.734;2022-08-04T14:44:54;30.70;95.10
18153;DHT22;9202;51.578;7.734;2022-08-04T14:46:58;30.70;95.40
18153;DHT22;9202;51.578;7.734;2022-08-04T14:49:09;30.90;95.90
18153;DHT22;9202;51.578;7.734;2022-08-04T14:51:14;31.00;96.30
18153;DHT22;9202;51.578;7.734;2022-08-04T14:53:20;31.00;95.50
18153;DHT22;9202;51.578;7.734;2022-08-04T14:55:24;31.00;95.90
18153;DHT22;9202;51.578;7.734;2022-08-04T14:57:28;31.00;95.90
18153;DHT22;9202;51.578;7.734;2022-08-04T14:59:41;30.90;96.00
18153;DHT22;9202;51.578;7.734;2022-08-04T15:01:49;31.00;95.00
18153;DHT22;9202;51.578;7.734;2022-08-04T15:03:55;30.90;94.90
18153;DHT22;9202;51.578;7.734;2022-08-04T15:06:00;30.80;95.70
18153;DHT22;9202;51.578;7.734;2022-08-04T15:08:06;30.70;95.40
18153;DHT22;9202;51.578;7.734;2022-08-04T15:10:10;30.70;96.00
18153;DHT22;9202;51.578;7.734;2022-08-04T15:12:16;30.70;95.50
18153;DHT22;9202;51.578;7.734;2022-08-04T15:14:20;30.80;95.50
18153;DHT22;9202;51.578;7.734;2022-08-04T15:16:27;30.70;95.40
18153;DHT22;9202;51.578;7.734;2022-08-04T15:18:31;30.70;95.50
18153;DHT22;9202;51.578;7.734;2022-08-04T15:20:36;30.70;95.80
18153;DHT22;9202;51.578;7.734;2022-08-04T15:22:41;30.70;95.80
18153;DHT22;9202;51.578;7.734;2022-08-04T15:24:44;30.60;95.70
18153;DHT22;9202;51.578;7.734;2022-08-04T15:26:51;30.60;96.30
18153;DHT22;9202;51.578;7.734;2022-08-04T15:29:00;30.50;96.10
18153;DHT22;9202;51.578;7.734;2022-08-04T15:31:06;30.50;96.40
18153;DHT22;9202;51.578;7.734;2022-08-04T15:33:13;30.60;96.90
18153;DHT22;9202;51.578;7.734;2022-08-04T15:35:23;30.50;96.60
18153;DHT22;9202;51.578;7.734;2022-08-04T15:37:30;30.50;96.90
18153;DHT22;9202;51.578;7.734;2022-08-04T15:39:37;30.50;96.90
18153;DHT22;9202;51.578;7.734;2022-08-04T15:41:49;30.40;96.60
18153;DHT22;9202;51.578;7.734;2022-08-04T15:43:59;30.40;96.50
18153;DHT22;9202;51.578;7.734;2022-08-04T15:46:03;30.40;96.70
18153;DHT22;9202;51.578;7.734;2022-08-04T15:48:23;30.30;96.30
18153;DHT22;9202;51.578;7.734;2022-08-04T15:50:31;30.30;96.30
18153;DHT22;9202;51.578;7.734;2022-08-04T15:52:58;30.20;96.50
18153;DHT22;9202;51.578;7.734;2022-08-04T15:55:30;30.10;96.70
18153;DHT22;9202;51.578;7.734;2022-08-04T16:00:13;30.00;96.60
18153;DHT22;9202;51.578;7.734;2022-08-04T16:05:32;29.90;95.90
18153;DHT22;9202;51.578;7.734;2022-08-04T16:10:35;29.60;96.10
18153;DHT22;9202;51.578;7.734;2022-08-04T16:13:03;29.60;96.20
18153;DHT22;9202;51.578;7.734;2022-08-04T16:15:37;29.50;96.30
18153;DHT22;9202;51.578;7.734;2022-08-04T16:17:41;29.50;96.30
18153;DHT22;9202;51.578;7.734;2022-08-04T16:19:56;29.40;96.20
18153;DHT22;9202;51.578;7.734;2022-08-04T16:22:02;29.40;96.40
18153;DHT22;9202;51.578;7.734;2022-08-04T16:24:17;29.40;96.50
18153;DHT22;9202;51.578;7.734;2022-08-04T16:26:47;29.30;96.80
18153;DHT22;9202;51.578;7.734;2022-08-04T16:28:52;29.40;96.90
18153;DHT22;9202;51.578;7.734;2022-08-04T16:31:00;29.30;96.80
18153;DHT22;9202;51.578;7.734;2022-08-04T16:33:07;29.30;97.00
18153;DHT22;9202;51.578;7.734;2022-08-04T16:35:25;29.30;97.10
18153;DHT22;9202;51.578;7.734;2022-08-04T16:37:33;29.30;97.20
18153;DHT22;9202;51.578;7.734;2022-08-04T16:39:38;29.20;97.80
18153;DHT22;9202;51.578;7.734;2022-08-04T16:44:29;29.30;98.10
18153;DHT22;9202;51.578;7.734;2022-08-04T16:49:06;29.30;98.10
18153;DHT22;9202;51.578;7.734;2022-08-04T16:51:10;29.20;98.50
18153;DHT22;9202;51.578;7.734;2022-08-04T16:53:19;29.20;98.90
18153;DHT22;9202;51.578;7.734;2022-08-04T16:55:25;29.10;97.80
18153;DHT22;9202;51.578;7.734;2022-08-04T16:57:29;29.00;97.80
18153;DHT22;9202;51.578;7.734;2022-08-04T16:59:35;28.90;97.40
18153;DHT22;9202;51.578;7.734;2022-08-04T17:01:44;29.00;97.10
18153;DHT22;9202;51.578;7.734;2022-08-04T17:06:09;28.90;97.10
18153;DHT22;9202;51.578;7.734;2022-08-04T17:08:13;28.80;97.40
18153;DHT22;9202;51.578;7.734;2022-08-04T17:10:30;28.80;97.70
18153;DHT22;9202;51.578;7.734;2022-08-04T17:12:34;28.80;97.70
18153;DHT22;9202;51.578;7.734;2022-08-04T17:14:37;28.80;98.20
18153;DHT22;9202;51.578;7.734;2022-08-04T17:16:41;28.70;98.00
18153;DHT22;9202;51.578;7.734;2022-08-04T17:21:07;28.50;98.30
18153;DHT22;9202;51.578;7.734;2022-08-04T17:23:35;28.50;98.80
18153;DHT22;9202;51.578;7.734;2022-08-04T17:25:50;28.50;99.40
18153;DHT22;9202;51.578;7.734;2022-08-04T17:28:02;28.50;99.90
18153;DHT22;9202;51.578;7.734;2022-08-04T17:30:24;28.70;99.90
18153;DHT22;9202;51.578;7.734;2022-08-04T17:32:28;28.70;99.80
18153;DHT22;9202;51.578;7.734;2022-08-04T17:34:32;28.80;99.90